sensor_id;sensor_type;location;lat;lon;timestamp;P1;durP1;ratioP1;P2;durP2;ratioP2
3771;SDS011;1901;48.172;12.824;2023-04-24T00:01:15;6.80;;;4.63;;
3771;SDS011;1901;48.172;12.824;2023-04-24T00:03:44;7.73;;;4.37;;
3771;SDS011;1901;48.172;12.824;2023-04-24T00:06:11;4.23;;;3.47;;
3771;SDS011;1901;48.172;12.824;2023-04-24T00:08:38;4.43;;;3.23;;
3771;SDS011;1901;48.172;12.824;2023-04-24T00:11:07;6.10;;;4.00;;
3771;SDS011;1901;48.172;12.824;2023-04-24T00:13:35;5.07;;;3.20;;
3771;SDS011;1901;48.172;12.824;2023-04-24T00:16:02;4.63;;;3.07;;
3771;SDS011;1901;48.172;12.824;2023-04-24T00:18:30;3.17;;;2.87;;
3771;SDS011;1901;48.172;12.824;2023-04-24T00:20:57;7.17;;;3.90;;
3771;SDS011;1901;48.172;12.824;2023-04-24T00:23:25;4.60;;;2.83;;
3771;SDS011;1901;48.172;12.824;2023-04-24T00:25:52;3.03;;;2.73;;
3771;SDS011;1901;48.172;12.824;2023-04-24T00:28:20;3.40;;;3.10;;
3771;SDS011;1901;48.172;12.824;2023-04-24T00:30:47;4.90;;;4.20;;
3771;SDS011;1901;48.172;12.824;2023-04-24T00:33:14;3.43;;;2.70;;
3771;SDS011;1901;48.172;12.824;2023-04-24T00:35:41;6.20;;;2.53;;
3771;SDS011;1901;48.172;12.824;2023-04-24T00:38:09;3.13;;;2.63;;
3771;SDS011;1901;48.172;12.824;2023-04-24T00:40:36;6.00;;;3.00;;
3771;SDS011;1901;48.172;12.824;2023-04-24T00:43:03;7.00;;;2.43;;
3771;SDS011;1901;48.172;12.824;2023-04-24T00:45:31;3.30;;;3.00;;
3771;SDS011;1901;48.172;12.824;2023-04-24T00:47:58;3.63;;;3.03;;
3771;SDS011;1901;48.172;12.824;2023-04-24T00:50:27;3.27;;;2.40;;
3771;SDS011;1901;48.172;12.824;2023-04-24T00:52:55;4.43;;;3.60;;
3771;SDS011;1901;48.172;12.824;2023-04-24T00:55:22;2.80;;;2.60;;
3771;SDS011;1901;48.172;12.824;2023-04-24T00:57:51;2.77;;;2.57;;
3771;SDS011;1901;48.172;12.824;2023-04-24T01:00:18;5.27;;;3.17;;
3771;SDS011;1901;48.172;12.824;2023-04-24T01:02:46;3.00;;;2.63;;
3771;SDS011;1901;48.172;12.824;2023-04-24T01:05:14;4.77;;;3.70;;
3771;SDS011;1901;48.172;12.824;2023-04-24T01:07:43;5.30;;;3.07;;
3771;SDS011;1901;48.172;12.824;2023-04-24T01:10:13;4.07;;;3.67;;
3771;SDS011;1901;48.172;12.824;2023-04-24T01:12:40;5.00;;;3.43;;
3771;SDS011;1901;48.172;12.824;2023-04-24T01:15:08;4.73;;;4.20;;
3771;SDS011;1901;48.172;12.824;2023-04-24T01:17:35;5.17;;;3.70;;
3771;SDS011;1901;48.172;12.824;2023-04-24T01:20:05;6.10;;;3.37;;
3771;SDS011;1901;48.172;12.824;2023-04-24T01:22:35;4.80;;;3.33;;
3771;SDS011;1901;48.172;12.824;2023-04-24T01:25:02;4.40;;;3.00;;
3771;SDS011;1901;48.172;12.824;2023-04-24T01:27:30;3.83;;;2.63;;
3771;SDS011;1901;48.172;12.824;2023-04-24T01:29:57;5.57;;;3.03;;
3771;SDS011;1901;48.172;12.824;2023-04-24T01:32:24;3.20;;;2.80;;
3771;SDS011;1901;48.172;12.824;2023-04-24T01:34:51;2.67;;;2.30;;
3771;SDS011;1901;48.172;12.824;2023-04-24T01:37:19;3.30;;;2.93;;
3771;SDS011;1901;48.172;12.824;2023-04-24T01:39:47;4.83;;;3.00;;
3771;SDS011;1901;48.172;12.824;2023-04-24T01:42:14;5.67;;;3.10;;
3771;SDS011;1901;48.172;12.824;2023-04-24T01:44:41;3.50;;;2.27;;
3771;SDS011;1901;48.172;12.824;2023-04-24T01:47:09;3.20;;;2.53;;
3771;SDS011;1901;48.172;12.824;2023-04-24T01:49:36;3.30;;;2.10;;
3771;SDS011;1901;48.172;12.824;2023-04-24T01:52:04;4.73;;;2.50;;
3771;SDS011;1901;48.172;12.824;2023-04-24T01:54:31;4.63;;;3.00;;
3771;SDS011;1901;48.172;12.824;2023-04-24T01:57:00;2.67;;;1.90;;
3771;SDS011;1901;48.172;12.824;2023-04-24T01:59:27;2.93;;;2.27;;
3771;SDS011;1901;48.172;12.824;2023-04-24T02:01:55;2.77;;;2.30;;
3771;SDS011;1901;48.172;12.824;2023-04-24T02:04:22;6.70;;;2.63;;
3771;SDS011;1901;48.172;12.824;2023-04-24T02:06:49;3.13;;;2.40;;
3771;SDS011;1901;48.172;12.824;2023-04-24T02:09:16;2.37;;;1.97;;
3771;SDS011;1901;48.172;12.824;2023-04-24T02:11:43;4.07;;;2.40;;
3771;SDS011;1901;48.172;12.824;2023-04-24T02:14:12;3.97;;;2.20;;
3771;SDS011;1901;48.172;12.824;2023-04-24T02:16:39;2.77;;;2.23;;
3771;SDS011;1901;48.172;12.824;2023-04-24T02:19:06;4.90;;;2.10;;
3771;SDS011;1901;48.172;12.824;2023-04-24T02:21:33;2.20;;;1.90;;
3771;SDS011;1901;48.172;12.824;2023-04-24T02:24:00;3.90;;;2.33;;
3771;SDS011;1901;48.172;12.824;2023-04-24T02:26:27;3.43;;;2.20;;
3771;SDS011;1901;48.172;12.824;2023-04-24T02:28:56;3.83;;;2.70;;
3771;SDS011;1901;48.172;12.824;2023-04-24T02:31:25;3.53;;;2.80;;
3771;SDS011;1901;48.172;12.824;2023-04-24T02:33:52;4.27;;;2.50;;
3771;SDS011;1901;48.172;12.824;2023-04-24T02:36:19;2.93;;;2.00;;
3771;SDS011;1901;48.172;12.824;2023-04-24T02:38:46;2.70;;;2.03;;
3771;SDS011;1901;48.172;12.824;2023-04-24T02:41:13;5.40;;;2.53;;
3771;SDS011;1901;48.172;12.824;2023-04-24T02:43:40;3.93;;;2.70;;
3771;SDS011;1901;48.172;12.824;2023-04-24T02:46:08;4.13;;;2.70;;
3771;SDS011;1901;48.172;12.824;2023-04-24T02:48:36;5.87;;;3.87;;
3771;SDS011;1901;48.172;12.824;2023-04-24T02:51:03;5.83;;;4.10;;
3771;SDS011;1901;48.172;12.824;2023-04-24T02:53:31;4.50;;;3.83;;
3771;SDS011;1901;48.172;12.824;2023-04-24T02:55:58;4.33;;;2.30;;
3771;SDS011;1901;48.172;12.824;2023-04-24T02:58:25;3.40;;;2.67;;
3771;SDS011;1901;48.172;12.824;2023-04-24T03:00:53;3.23;;;2.20;;
3771;SDS011;1901;48.172;12.824;2023-04-24T03:03:21;2.47;;;2.27;;
3771;SDS011;1901;48.172;12.824;2023-04-24T03:05:50;3.33;;;2.20;;
3771;SDS011;1901;48.172;12.824;2023-04-24T03:08:17;4.47;;;1.80;;
3771;SDS011;1901;48.172;12.824;2023-04-24T03:10:44;2.93;;;1.70;;
3771;SDS011;1901;48.172;12.824;2023-04-24T03:13:11;3.67;;;2.90;;
3771;SDS011;1901;48.172;12.824;2023-04-24T03:15:38;6.17;;;5.57;;
3771;SDS011;1901;48.172;12.824;2023-04-24T03:18:05;4.40;;;3.13;;
3771;SDS011;1901;48.172;12.824;2023-04-24T03:20:32;4.33;;;3.00;;
3771;SDS011;1901;48.172;12.824;2023-04-24T03:23:03;3.53;;;2.20;;
3771;SDS011;1901;48.172;12.824;2023-04-24T03:25:30;4.20;;;2.47;;
3771;SDS011;1901;48.172;12.824;2023-04-24T03:27:57;8.83;;;3.47;;
3771;SDS011;1901;48.172;12.824;2023-04-24T03:30:24;4.73;;;3.43;;
3771;SDS011;1901;48.172;12.824;2023-04-24T03:32:51;3.77;;;2.90;;
3771;SDS011;1901;48.172;12.824;2023-04-24T03:35:18;5.43;;;2.40;;
3771;SDS011;1901;48.172;12.824;2023-04-24T03:37:47;7.30;;;2.97;;
3771;SDS011;1901;48.172;12.824;2023-04-24T03:40:15;4.40;;;3.50;;
3771;SDS011;1901;48.172;12.824;2023-04-24T03:42:42;3.77;;;1.83;;
3771;SDS011;1901;48.172;12.824;2023-04-24T03:45:09;3.10;;;2.37;;
3771;SDS011;1901;48.172;12.824;2023-04-24T03:47:37;3.40;;;2.47;;
3771;SDS011;1901;48.172;12.824;2023-04-24T03:50:04;4.50;;;3.37;;
3771;SDS011;1901;48.172;12.824;2023-04-24T03:52:31;4.10;;;2.10;;
3771;SDS011;1901;48.172;12.824;2023-04-24T03:54:59;4.77;;;1.97;;
3771;SDS011;1901;48.172;12.824;2023-04-24T03:57:27;5.00;;;2.60;;
3771;SDS011;1901;48.172;12.824;2023-04-24T03:59:54;4.07;;;2.30;;
3771;SDS011;1901;48.172;12.824;2023-04-24T04:02:21;5.23;;;2.50;;
3771;SDS011;1901;48.172;12.824;2023-04-24T04:04:48;5.10;;;2.53;;
3771;SDS011;1901;48.172;12.824;2023-04-24T04:07:15;3.30;;;2.43;;
3771;SDS011;1901;48.172;12.824;2023-04-24T04:09:43;3.97;;;2.00;;
3771;SDS011;1901;48.172;12.824;2023-04-24T04:12:10;3.60;;;2.67;;
3771;SDS011;1901;48.172;12.824;2023-04-24T04:14:39;5.13;;;2.63;;
3771;SDS011;1901;48.172;12.824;2023-04-24T04:17:06;3.53;;;2.70;;
3771;SDS011;1901;48.172;12.824;2023-04-24T04:19:33;4.10;;;2.20;;
3771;SDS011;1901;48.172;12.824;2023-04-24T04:22:00;4.60;;;3.20;;
3771;SDS011;1901;48.172;12.824;2023-04-24T04:24:27;3.97;;;2.50;;
3771;SDS011;1901;48.172;12.824;2023-04-24T04:26:54;2.17;;;1.90;;
3771;SDS011;1901;48.172;12.824;2023-04-24T04:29:23;9.33;;;5.03;;
3771;SDS011;1901;48.172;12.824;2023-04-24T04:31:52;6.20;;;3.37;;
3771;SDS011;1901;48.172;12.824;2023-04-24T04:34:20;4.40;;;2.80;;
3771;SDS011;1901;48.172;12.824;2023-04-24T04:36:47;7.50;;;3.80;;
3771;SDS011;1901;48.172;12.824;2023-04-24T04:39:15;7.73;;;4.50;;
3771;SDS011;1901;48.172;12.824;2023-04-24T04:41:43;4.23;;;3.20;;
3771;SDS011;1901;48.172;12.824;2023-04-24T04:44:13;3.50;;;2.50;;
3771;SDS011;1901;48.172;12.824;2023-04-24T04:46:40;3.53;;;2.30;;
3771;SDS011;1901;48.172;12.824;2023-04-24T04:49:10;3.07;;;2.53;;
3771;SDS011;1901;48.172;12.824;2023-04-24T04:51:38;3.80;;;2.70;;
3771;SDS011;1901;48.172;12.824;2023-04-24T04:54:05;3.70;;;2.90;;
3771;SDS011;1901;48.172;12.824;2023-04-24T04:56:32;4.53;;;3.03;;
3771;SDS011;1901;48.172;12.824;2023-04-24T04:58:59;5.00;;;2.90;;
3771;SDS011;1901;48.172;12.824;2023-04-24T05:01:27;2.70;;;2.30;;
3771;SDS011;1901;48.172;12.824;2023-04-24T05:03:54;4.37;;;3.00;;
3771;SDS011;1901;48.172;12.824;2023-04-24T05:06:22;4.70;;;2.87;;
3771;SDS011;1901;48.172;12.824;2023-04-24T05:08:50;2.80;;;2.17;;
3771;SDS011;1901;48.172;12.824;2023-04-24T05:11:21;3.20;;;2.90;;
3771;SDS011;1901;48.172;12.824;2023-04-24T05:13:48;3.40;;;1.93;;
3771;SDS011;1901;48.172;12.824;2023-04-24T05:16:15;3.07;;;1.80;;
3771;SDS011;1901;48.172;12.824;2023-04-24T05:18:42;3.30;;;1.80;;
3771;SDS011;1901;48.172;12.824;2023-04-24T05:21:09;2.30;;;1.63;;
3771;SDS011;1901;48.172;12.824;2023-04-24T05:23:38;3.03;;;2.57;;
3771;SDS011;1901;48.172;12.824;2023-04-24T05:26:05;3.07;;;2.10;;
3771;SDS011;1901;48.172;12.824;2023-04-24T05:28:32;2.40;;;1.67;;
3771;SDS011;1901;48.172;12.824;2023-04-24T05:31:01;2.67;;;2.17;;
3771;SDS011;1901;48.172;12.824;2023-04-24T05:33:28;4.33;;;2.10;;
3771;SDS011;1901;48.172;12.824;2023-04-24T05:35:55;4.23;;;1.83;;
3771;SDS011;1901;48.172;12.824;2023-04-24T05:38:22;3.23;;;1.70;;
3771;SDS011;1901;48.172;12.824;2023-04-24T05:40:51;2.97;;;1.90;;
3771;SDS011;1901;48.172;12.824;2023-04-24T05:43:18;2.20;;;1.53;;
3771;SDS011;1901;48.172;12.824;2023-04-24T05:45:45;2.37;;;1.87;;
3771;SDS011;1901;48.172;12.824;2023-04-24T05:48:12;2.63;;;1.60;;
3771;SDS011;1901;48.172;12.824;2023-04-24T05:50:39;2.50;;;1.60;;
3771;SDS011;1901;48.172;12.824;2023-04-24T05:53:07;2.30;;;1.60;;
3771;SDS011;1901;48.172;12.824;2023-04-24T05:55:35;1.97;;;1.50;;
3771;SDS011;1901;48.172;12.824;2023-04-24T05:58:04;6.00;;;1.60;;
3771;SDS011;1901;48.172;12.824;2023-04-24T06:00:31;5.90;;;4.00;;
3771;SDS011;1901;48.172;12.824;2023-04-24T06:02:59;1.83;;;1.50;;
3771;SDS011;1901;48.172;12.824;2023-04-24T06:05:28;1.80;;;1.40;;
3771;SDS011;1901;48.172;12.824;2023-04-24T06:07:55;1.40;;;1.10;;
3771;SDS011;1901;48.172;12.824;2023-04-24T06:10:23;1.83;;;1.30;;
3771;SDS011;1901;48.172;12.824;2023-04-24T06:12:50;1.97;;;1.20;;
3771;SDS011;1901;48.172;12.824;2023-04-24T06:15:22;3.33;;;1.33;;
3771;SDS011;1901;48.172;12.824;2023-04-24T06:17:49;2.13;;;1.50;;
3771;SDS011;1901;48.172;12.824;2023-04-24T06:20:16;1.90;;;1.40;;
3771;SDS011;1901;48.172;12.824;2023-04-24T06:22:43;2.27;;;1.33;;
3771;SDS011;1901;48.172;12.824;2023-04-24T06:25:11;4.23;;;1.87;;
3771;SDS011;1901;48.172;12.824;2023-04-24T06:27:38;4.03;;;2.10;;
3771;SDS011;1901;48.172;12.824;2023-04-24T06:30:06;6.60;;;1.43;;
3771;SDS011;1901;48.172;12.824;2023-04-24T06:32:34;1.83;;;1.60;;
3771;SDS011;1901;48.172;12.824;2023-04-24T06:35:01;2.60;;;1.60;;
3771;SDS011;1901;48.172;12.824;2023-04-24T06:37:28;1.90;;;1.40;;
3771;SDS011;1901;48.172;12.824;2023-04-24T06:39:57;3.13;;;1.57;;
3771;SDS011;1901;48.172;12.824;2023-04-24T06:42:24;3.37;;;1.47;;
3771;SDS011;1901;48.172;12.824;2023-04-24T06:44:51;3.43;;;1.87;;
3771;SDS011;1901;48.172;12.824;2023-04-24T06:47:18;1.93;;;1.30;;
3771;SDS011;1901;48.172;12.824;2023-04-24T06:49:47;3.17;;;1.40;;
3771;SDS011;1901;48.172;12.824;2023-04-24T06:52:15;3.03;;;1.30;;
3771;SDS011;1901;48.172;12.824;2023-04-24T06:54:43;1.90;;;1.30;;
3771;SDS011;1901;48.172;12.824;2023-04-24T06:57:10;2.60;;;1.40;;
3771;SDS011;1901;48.172;12.824;2023-04-24T06:59:37;1.80;;;1.40;;
3771;SDS011;1901;48.172;12.824;2023-04-24T07:02:04;1.53;;;1.07;;
3771;SDS011;1901;48.172;12.824;2023-04-24T07:04:31;3.10;;;2.10;;
3771;SDS011;1901;48.172;12.824;2023-04-24T07:07:00;2.03;;;1.60;;
3771;SDS011;1901;48.172;12.824;2023-04-24T07:09:27;3.20;;;1.40;;
3771;SDS011;1901;48.172;12.824;2023-04-24T07:11:54;2.10;;;1.90;;
3771;SDS011;1901;48.172;12.824;2023-04-24T07:14:22;2.00;;;1.80;;
3771;SDS011;1901;48.172;12.824;2023-04-24T07:16:49;1.80;;;1.60;;
3771;SDS011;1901;48.172;12.824;2023-04-24T07:19:16;2.20;;;1.70;;
3771;SDS011;1901;48.172;12.824;2023-04-24T07:21:43;4.03;;;2.47;;
3771;SDS011;1901;48.172;12.824;2023-04-24T07:24:12;6.67;;;4.87;;
3771;SDS011;1901;48.172;12.824;2023-04-24T07:26:39;3.73;;;2.43;;
3771;SDS011;1901;48.172;12.824;2023-04-24T07:29:06;4.10;;;2.77;;
3771;SDS011;1901;48.172;12.824;2023-04-24T07:31:33;4.00;;;2.40;;
3771;SDS011;1901;48.172;12.824;2023-04-24T07:34:00;3.17;;;2.10;;
3771;SDS011;1901;48.172;12.824;2023-04-24T07:36:27;2.17;;;1.43;;
3771;SDS011;1901;48.172;12.824;2023-04-24T07:38:55;2.47;;;1.70;;
3771;SDS011;1901;48.172;12.824;2023-04-24T07:41:23;1.97;;;1.70;;
3771;SDS011;1901;48.172;12.824;2023-04-24T07:43:52;1.60;;;1.23;;
3771;SDS011;1901;48.172;12.824;2023-04-24T07:46:20;2.93;;;1.43;;
3771;SDS011;1901;48.172;12.824;2023-04-24T07:48:48;1.80;;;1.40;;
3771;SDS011;1901;48.172;12.824;2023-04-24T07:51:15;2.70;;;1.60;;
3771;SDS011;1901;48.172;12.824;2023-04-24T07:53:42;1.87;;;1.50;;
3771;SDS011;1901;48.172;12.824;2023-04-24T07:56:09;2.00;;;1.80;;
3771;SDS011;1901;48.172;12.824;2023-04-24T07:58:38;2.40;;;1.90;;
3771;SDS011;1901;48.172;12.824;2023-04-24T08:01:05;3.47;;;1.63;;
3771;SDS011;1901;48.172;12.824;2023-04-24T08:03:32;2.50;;;1.87;;
3771;SDS011;1901;48.172;12.824;2023-04-24T08:05:59;3.80;;;2.23;;
3771;SDS011;1901;48.172;12.824;2023-04-24T08:08:26;4.87;;;2.00;;
3771;SDS011;1901;48.172;12.824;2023-04-24T08:10:53;3.90;;;1.67;;
3771;SDS011;1901;48.172;12.824;2023-04-24T08:13:20;2.13;;;1.53;;
3771;SDS011;1901;48.172;12.824;2023-04-24T08:15:49;2.37;;;1.40;;
3771;SDS011;1901;48.172;12.824;2023-04-24T08:18:16;4.50;;;1.40;;
3771;SDS011;1901;48.172;12.824;2023-04-24T08:20:43;3.00;;;2.50;;
3771;SDS011;1901;48.172;12.824;2023-04-24T08:23:11;2.73;;;1.40;;
3771;SDS011;1901;48.172;12.824;2023-04-24T08:25:38;1.70;;;1.10;;
3771;SDS011;1901;48.172;12.824;2023-04-24T08:28:05;1.60;;;1.30;;
3771;SDS011;1901;48.172;12.824;2023-04-24T08:30:33;2.20;;;1.40;;
3771;SDS011;1901;48.172;12.824;2023-04-24T08:33:01;1.90;;;1.60;;
3771;SDS011;1901;48.172;12.824;2023-04-24T08:35:28;4.60;;;1.93;;
3771;SDS011;1901;48.172;12.824;2023-04-24T08:37:55;2.27;;;1.40;;
3771;SDS011;1901;48.172;12.824;2023-04-24T08:40:28;2.13;;;0.90;;
3771;SDS011;1901;48.172;12.824;2023-04-24T08:42:55;1.70;;;1.13;;
3771;SDS011;1901;48.172;12.824;2023-04-24T08:45:23;3.63;;;1.03;;
3771;SDS011;1901;48.172;12.824;2023-04-24T08:47:51;1.30;;;0.83;;
3771;SDS011;1901;48.172;12.824;2023-04-24T08:50:21;1.40;;;1.10;;
3771;SDS011;1901;48.172;12.824;2023-04-24T08:52:49;1.20;;;0.83;;
3771;SDS011;1901;48.172;12.824;2023-04-24T08:55:18;4.30;;;0.93;;
3771;SDS011;1901;48.172;12.824;2023-04-24T08:57:45;1.70;;;1.03;;
3771;SDS011;1901;48.172;12.824;2023-04-24T09:00:14;2.13;;;1.00;;
3771;SDS011;1901;48.172;12.824;2023-04-24T09:02:42;1.40;;;1.00;;
3771;SDS011;1901;48.172;12.824;2023-04-24T09:05:09;3.03;;;1.17;;
3771;SDS011;1901;48.172;12.824;2023-04-24T09:07:38;1.40;;;1.00;;
3771;SDS011;1901;48.172;12.824;2023-04-24T09:10:06;1.97;;;1.73;;
3771;SDS011;1901;48.172;12.824;2023-04-24T09:12:34;3.93;;;1.37;;
3771;SDS011;1901;48.172;12.824;2023-04-24T09:15:01;1.40;;;1.00;;
3771;SDS011;1901;48.172;12.824;2023-04-24T09:17:29;1.80;;;1.20;;
3771;SDS011;1901;48.172;12.824;2023-04-24T09:19:57;1.40;;;0.90;;
3771;SDS011;1901;48.172;12.824;2023-04-24T09:22:24;4.27;;;1.60;;
3771;SDS011;1901;48.172;12.824;2023-04-24T09:25:00;1.80;;;1.00;;
3771;SDS011;1901;48.172;12.824;2023-04-24T09:27:28;1.53;;;1.07;;
3771;SDS011;1901;48.172;12.824;2023-04-24T09:29:56;1.97;;;1.10;;
3771;SDS011;1901;48.172;12.824;2023-04-24T09:32:23;2.23;;;1.37;;
3771;SDS011;1901;48.172;12.824;2023-04-24T09:35:05;2.07;;;1.00;;
3771;SDS011;1901;48.172;12.824;2023-04-24T09:37:35;1.50;;;1.20;;
3771;SDS011;1901;48.172;12.824;2023-04-24T09:40:10;1.77;;;1.10;;
3771;SDS011;1901;48.172;12.824;2023-04-24T09:42:37;1.67;;;1.00;;
3771;SDS011;1901;48.172;12.824;2023-04-24T09:45:08;2.80;;;1.73;;
3771;SDS011;1901;48.172;12.824;2023-04-24T09:47:36;1.80;;;1.30;;
3771;SDS011;1901;48.172;12.824;2023-04-24T09:50:12;1.30;;;1.00;;
3771;SDS011;1901;48.172;12.824;2023-04-24T09:52:41;1.30;;;0.90;;
3771;SDS011;1901;48.172;12.824;2023-04-24T09:55:18;1.53;;;1.00;;
3771;SDS011;1901;48.172;12.824;2023-04-24T09:57:49;1.40;;;1.00;;
3771;SDS011;1901;48.172;12.824;2023-04-24T10:00:22;1.70;;;1.20;;
3771;SDS011;1901;48.172;12.824;2023-04-24T10:02:50;1.67;;;1.40;;
3771;SDS011;1901;48.172;12.824;2023-04-24T10:05:18;1.50;;;1.23;;
3771;SDS011;1901;48.172;12.824;2023-04-24T10:07:45;3.00;;;0.90;;
3771;SDS011;1901;48.172;12.824;2023-04-24T10:10:12;1.40;;;0.93;;
3771;SDS011;1901;48.172;12.824;2023-04-24T10:12:41;1.53;;;0.87;;
3771;SDS011;1901;48.172;12.824;2023-04-24T10:15:09;1.40;;;1.00;;
3771;SDS011;1901;48.172;12.824;2023-04-24T10:17:38;1.80;;;1.10;;
3771;SDS011;1901;48.172;12.824;2023-04-24T10:20:06;2.47;;;1.20;;
3771;SDS011;1901;48.172;12.824;2023-04-24T10:22:34;1.80;;;1.30;;
3771;SDS011;1901;48.172;12.824;2023-04-24T10:25:03;1.70;;;1.10;;
3771;SDS011;1901;48.172;12.824;2023-04-24T10:27:31;1.60;;;1.17;;
3771;SDS011;1901;48.172;12.824;2023-04-24T10:30:00;2.57;;;1.30;;
3771;SDS011;1901;48.172;12.824;2023-04-24T10:32:28;4.67;;;1.20;;
3771;SDS011;1901;48.172;12.824;2023-04-24T10:34:55;1.53;;;1.20;;
3771;SDS011;1901;48.172;12.824;2023-04-24T10:37:23;2.40;;;1.60;;
3771;SDS011;1901;48.172;12.824;2023-04-24T10:39:50;2.17;;;1.40;;
3771;SDS011;1901;48.172;12.824;2023-04-24T10:42:19;1.53;;;1.30;;
3771;SDS011;1901;48.172;12.824;2023-04-24T10:44:47;3.17;;;2.20;;
3771;SDS011;1901;48.172;12.824;2023-04-24T10:47:16;3.73;;;1.83;;
3771;SDS011;1901;48.172;12.824;2023-04-24T10:49:43;1.90;;;1.60;;
3771;SDS011;1901;48.172;12.824;2023-04-24T10:52:10;2.20;;;1.77;;
3771;SDS011;1901;48.172;12.824;2023-04-24T10:54:41;1.80;;;1.47;;
3771;SDS011;1901;48.172;12.824;2023-04-24T10:57:27;2.03;;;1.63;;
3771;SDS011;1901;48.172;12.824;2023-04-24T11:02:45;3.83;;;1.80;;
3771;SDS011;1901;48.172;12.824;2023-04-24T11:05:15;2.30;;;1.60;;
3771;SDS011;1901;48.172;12.824;2023-04-24T11:10:28;2.07;;;1.63;;
3771;SDS011;1901;48.172;12.824;2023-04-24T11:12:55;2.50;;;1.60;;
3771;SDS011;1901;48.172;12.824;2023-04-24T11:15:22;2.33;;;1.97;;
3771;SDS011;1901;48.172;12.824;2023-04-24T11:17:51;1.90;;;1.60;;
3771;SDS011;1901;48.172;12.824;2023-04-24T11:20:23;2.10;;;1.30;;
3771;SDS011;1901;48.172;12.824;2023-04-24T11:22:52;1.80;;;1.30;;
3771;SDS011;1901;48.172;12.824;2023-04-24T11:25:20;2.40;;;1.30;;
3771;SDS011;1901;48.172;12.824;2023-04-24T11:27:48;2.10;;;1.43;;
3771;SDS011;1901;48.172;12.824;2023-04-24T11:30:16;1.60;;;1.40;;
3771;SDS011;1901;48.172;12.824;2023-04-24T11:32:47;2.33;;;1.50;;
3771;SDS011;1901;48.172;12.824;2023-04-24T11:35:16;2.80;;;1.80;;
3771;SDS011;1901;48.172;12.824;2023-04-24T11:37:44;1.97;;;1.77;;
3771;SDS011;1901;48.172;12.824;2023-04-24T11:40:13;3.00;;;1.77;;
3771;SDS011;1901;48.172;12.824;2023-04-24T11:42:41;2.17;;;1.73;;
3771;SDS011;1901;48.172;12.824;2023-04-24T11:45:09;2.30;;;1.70;;
3771;SDS011;1901;48.172;12.824;2023-04-24T11:47:37;2.73;;;1.57;;
3771;SDS011;1901;48.172;12.824;2023-04-24T11:50:05;1.73;;;1.53;;
3771;SDS011;1901;48.172;12.824;2023-04-24T11:52:36;2.33;;;1.70;;
3771;SDS011;1901;48.172;12.824;2023-04-24T11:55:04;3.70;;;1.90;;
3771;SDS011;1901;48.172;12.824;2023-04-24T11:57:31;1.90;;;1.73;;
3771;SDS011;1901;48.172;12.824;2023-04-24T12:00:01;2.13;;;1.93;;
3771;SDS011;1901;48.172;12.824;2023-04-24T12:02:29;2.27;;;1.67;;
3771;SDS011;1901;48.172;12.824;2023-04-24T12:04:56;2.60;;;2.20;;
3771;SDS011;1901;48.172;12.824;2023-04-24T12:07:23;3.63;;;2.00;;
3771;SDS011;1901;48.172;12.824;2023-04-24T12:09:56;2.17;;;1.77;;
3771;SDS011;1901;48.172;12.824;2023-04-24T12:12:24;3.20;;;1.70;;
3771;SDS011;1901;48.172;12.824;2023-04-24T12:14:53;2.20;;;1.67;;
3771;SDS011;1901;48.172;12.824;2023-04-24T12:17:23;3.93;;;1.63;;
3771;SDS011;1901;48.172;12.824;2023-04-24T12:19:51;2.93;;;1.73;;
3771;SDS011;1901;48.172;12.824;2023-04-24T12:22:18;2.43;;;1.70;;
3771;SDS011;1901;48.172;12.824;2023-04-24T12:25:00;5.43;;;1.90;;
3771;SDS011;1901;48.172;12.824;2023-04-24T12:27:29;2.03;;;1.80;;
3771;SDS011;1901;48.172;12.824;2023-04-24T12:29:57;3.40;;;2.10;;
3771;SDS011;1901;48.172;12.824;2023-04-24T12:32:25;2.23;;;1.50;;
3771;SDS011;1901;48.172;12.824;2023-04-24T12:34:52;1.77;;;1.40;;
3771;SDS011;1901;48.172;12.824;2023-04-24T12:37:19;1.97;;;1.63;;
3771;SDS011;1901;48.172;12.824;2023-04-24T12:40:01;1.47;;;0.90;;
3771;SDS011;1901;48.172;12.824;2023-04-24T12:42:28;3.03;;;1.20;;
3771;SDS011;1901;48.172;12.824;2023-04-24T12:44:56;1.50;;;1.00;;
3771;SDS011;1901;48.172;12.824;2023-04-24T12:47:24;1.40;;;1.00;;
3771;SDS011;1901;48.172;12.824;2023-04-24T12:49:51;2.00;;;1.50;;
3771;SDS011;1901;48.172;12.824;2023-04-24T12:52:20;2.70;;;1.60;;
3771;SDS011;1901;48.172;12.824;2023-04-24T12:54:47;1.50;;;1.10;;
3771;SDS011;1901;48.172;12.824;2023-04-24T12:57:16;1.60;;;1.20;;
3771;SDS011;1901;48.172;12.824;2023-04-24T12:59:43;4.27;;;1.10;;
3771;SDS011;1901;48.172;12.824;2023-04-24T13:02:10;3.73;;;1.90;;
3771;SDS011;1901;48.172;12.824;2023-04-24T13:04:37;2.07;;;1.53;;
3771;SDS011;1901;48.172;12.824;2023-04-24T13:07:05;1.60;;;1.17;;
3771;SDS011;1901;48.172;12.824;2023-04-24T13:09:33;2.00;;;1.47;;
3771;SDS011;1901;48.172;12.824;2023-04-24T13:12:01;1.50;;;1.33;;
3771;SDS011;1901;48.172;12.824;2023-04-24T13:14:31;2.87;;;1.30;;
3771;SDS011;1901;48.172;12.824;2023-04-24T13:16:58;3.30;;;1.60;;
3771;SDS011;1901;48.172;12.824;2023-04-24T13:19:26;1.70;;;1.30;;
3771;SDS011;1901;48.172;12.824;2023-04-24T13:21:54;1.53;;;1.20;;
3771;SDS011;1901;48.172;12.824;2023-04-24T13:24:21;1.70;;;1.50;;
3771;SDS011;1901;48.172;12.824;2023-04-24T13:26:50;1.47;;;1.17;;
3771;SDS011;1901;48.172;12.824;2023-04-24T13:29:17;3.53;;;1.20;;
3771;SDS011;1901;48.172;12.824;2023-04-24T13:31:45;3.80;;;1.43;;
3771;SDS011;1901;48.172;12.824;2023-04-24T13:34:12;6.47;;;2.97;;
3771;SDS011;1901;48.172;12.824;2023-04-24T13:36:40;2.00;;;1.30;;
3771;SDS011;1901;48.172;12.824;2023-04-24T13:39:07;2.07;;;1.20;;
3771;SDS011;1901;48.172;12.824;2023-04-24T13:41:34;1.50;;;1.20;;
3771;SDS011;1901;48.172;12.824;2023-04-24T13:44:01;1.60;;;1.30;;
3771;SDS011;1901;48.172;12.824;2023-04-24T13:46:29;2.27;;;1.60;;
3771;SDS011;1901;48.172;12.824;2023-04-24T13:48:57;2.20;;;1.53;;
3771;SDS011;1901;48.172;12.824;2023-04-24T13:51:25;1.50;;;1.20;;
3771;SDS011;1901;48.172;12.824;2023-04-24T13:53:52;1.73;;;1.43;;
3771;SDS011;1901;48.172;12.824;2023-04-24T13:56:20;1.50;;;1.10;;
3771;SDS011;1901;48.172;12.824;2023-04-24T13:58:47;2.53;;;1.70;;
3771;SDS011;1901;48.172;12.824;2023-04-24T14:01:14;1.40;;;1.20;;
3771;SDS011;1901;48.172;12.824;2023-04-24T14:03:42;1.83;;;1.47;;
3771;SDS011;1901;48.172;12.824;2023-04-24T14:06:10;1.67;;;1.40;;
3771;SDS011;1901;48.172;12.824;2023-04-24T14:08:38;1.90;;;1.40;;
3771;SDS011;1901;48.172;12.824;2023-04-24T14:11:05;3.07;;;1.40;;
3771;SDS011;1901;48.172;12.824;2023-04-24T14:13:32;2.10;;;1.20;;
3771;SDS011;1901;48.172;12.824;2023-04-24T14:15:59;4.43;;;1.60;;
3771;SDS011;1901;48.172;12.824;2023-04-24T14:18:26;1.63;;;1.30;;
3771;SDS011;1901;48.172;12.824;2023-04-24T14:20:53;2.13;;;1.70;;
3771;SDS011;1901;48.172;12.824;2023-04-24T14:23:22;2.13;;;1.50;;
3771;SDS011;1901;48.172;12.824;2023-04-24T14:25:49;2.50;;;2.30;;
3771;SDS011;1901;48.172;12.824;2023-04-24T14:28:17;2.73;;;1.90;;
3771;SDS011;1901;48.172;12.824;2023-04-24T14:30:45;2.37;;;1.50;;
3771;SDS011;1901;48.172;12.824;2023-04-24T14:33:12;6.60;;;1.80;;
3771;SDS011;1901;48.172;12.824;2023-04-24T14:35:39;3.27;;;2.90;;
3771;SDS011;1901;48.172;12.824;2023-04-24T14:38:07;3.73;;;2.70;;
3771;SDS011;1901;48.172;12.824;2023-04-24T14:40:35;5.97;;;2.90;;
3771;SDS011;1901;48.172;12.824;2023-04-24T14:43:03;13.53;;;3.27;;
3771;SDS011;1901;48.172;12.824;2023-04-24T14:45:30;4.50;;;2.40;;
3771;SDS011;1901;48.172;12.824;2023-04-24T14:47:57;6.33;;;2.33;;
3771;SDS011;1901;48.172;12.824;2023-04-24T14:50:24;5.10;;;2.60;;
3771;SDS011;1901;48.172;12.824;2023-04-24T14:52:53;3.00;;;1.87;;
3771;SDS011;1901;48.172;12.824;2023-04-24T14:55:20;4.93;;;2.83;;
3771;SDS011;1901;48.172;12.824;2023-04-24T14:57:48;2.60;;;2.10;;
3771;SDS011;1901;48.172;12.824;2023-04-24T15:00:16;5.23;;;3.20;;
3771;SDS011;1901;48.172;12.824;2023-04-24T15:02:46;6.60;;;2.30;;
3771;SDS011;1901;48.172;12.824;2023-04-24T15:05:13;3.30;;;2.20;;
3771;SDS011;1901;48.172;12.824;2023-04-24T15:07:40;3.13;;;2.53;;
3771;SDS011;1901;48.172;12.824;2023-04-24T15:10:07;4.17;;;3.33;;